Weather reports worldwide

Advertisment
Blencathra, United Kingdom (99143): temperature & dewpoint: 12.08.2017 00:00:00 - 18.08.2017 00:00:00 (BST)Blencathra, United Kingdom (99143): visibility: 12.08.2017 00:00:00 - 18.08.2017 00:00:00 (BST)Blencathra, United Kingdom (99143): precipitation: 12.08.2017 00:00:00 - 18.08.2017 00:00:00 (BST)
Date & Time tt [°C] td [°C] vv [km] rr [mm]
18.08.2017 00:00:00 - - - 0,2
17.08.2017 23:00:00 13,8 12,1 - 0,4
17.08.2017 22:00:00 14,1 12,2 - 0,2
17.08.2017 21:00:00 13,8 11,6 - 0,0
17.08.2017 20:00:00 14,5 11,8 - 0,0
17.08.2017 19:00:00 14,6 12,3 - 0,6
17.08.2017 18:00:00 15,0 12,9 - 0,2
17.08.2017 17:00:00 15,9 11,9 - 0,0
17.08.2017 16:00:00 17,8 11,8 - 0,0
17.08.2017 15:00:00 17,6 11,3 - 0,0
17.08.2017 14:00:00 18,1 11,8 - 0,0
17.08.2017 13:00:00 18,3 10,6 - 0,0
17.08.2017 12:00:00 17,7 9,6 - 0,0
17.08.2017 11:00:00 17,5 12,5 - 0,0
17.08.2017 10:00:00 16,3 11,5 10 0,0
17.08.2017 09:00:00 15,7 13,5 - 0,0
17.08.2017 08:00:00 13,3 12,6 - 0,0
17.08.2017 07:00:00 12,3 11,6 - 0,0
17.08.2017 06:00:00 13,1 12,4 - 0,0
17.08.2017 05:00:00 13,4 12,9 - 0,0
17.08.2017 04:00:00 13,4 13,0 - 0,8
17.08.2017 03:00:00 13,7 13,0 - 1,2
17.08.2017 02:00:00 13,9 13,3 - 0,8
17.08.2017 01:00:00 14,3 13,9 - 0,8
17.08.2017 00:00:00 14,1 13,7 - 1,4
16.08.2017 23:00:00 14,1 13,5 - 1,0
16.08.2017 22:00:00 14,0 13,3 - 0,8
16.08.2017 21:00:00 14,0 13,3 - 1,8
16.08.2017 20:00:00 13,9 13,0 - 0,6
16.08.2017 19:00:00 14,3 12,6 - 0,2
16.08.2017 18:00:00 14,6 12,7 - 0,0
16.08.2017 17:00:00 15,2 12,2 - 0,0
16.08.2017 16:00:00 14,1 12,0 - 0,2
16.08.2017 15:00:00 15,7 10,7 - 0,0
16.08.2017 14:00:00 16,4 10,8 - 0,0
16.08.2017 13:00:00 16,5 11,8 - 0,0
16.08.2017 12:00:00 16,5 11,9 - 0,0
16.08.2017 11:00:00 14,8 10,9 - 0,0
16.08.2017 10:00:00 14,5 11,7 1,0 0,0
16.08.2017 09:00:00 12,7 10,6 - 0,0
16.08.2017 08:00:00 11,8 10,5 - 0,0
16.08.2017 07:00:00 11,7 10,7 - 0,0
16.08.2017 06:00:00 12,1 10,9 - 0,0
16.08.2017 05:00:00 12,4 11,4 - 0,0
16.08.2017 04:00:00 12,5 11,1 - 0,0
16.08.2017 03:00:00 12,7 10,9 - 0,0
16.08.2017 02:00:00 13,1 10,8 - 0,0
16.08.2017 01:00:00 12,6 10,6 - 0,0
16.08.2017 00:00:00 12,6 10,5 - 0,0
15.08.2017 23:00:00 12,8 10,4 - 0,0
15.08.2017 22:00:00 12,9 10,5 - 0,0
15.08.2017 21:00:00 13,3 10,2 - 0,0
15.08.2017 20:00:00 13,7 10,6 - 0,0
15.08.2017 19:00:00 14,1 10,6 - 0,0
15.08.2017 18:00:00 15,9 10,7 - 0,0
15.08.2017 17:00:00 16,1 10,6 - 0,0
15.08.2017 16:00:00 15,9 10,9 - 0,0
15.08.2017 15:00:00 14,9 10,4 - 0,0
15.08.2017 14:00:00 15,1 11,3 - 0,0
15.08.2017 13:00:00 14,6 12,0 - 0,0
15.08.2017 12:00:00 14,4 12,1 - 0,4
15.08.2017 11:00:00 13,6 12,0 - 0,8
15.08.2017 10:00:00 12,5 11,6 10 0,6
15.08.2017 09:00:00 13,1 10,9 - 0,0
15.08.2017 08:00:00 12,8 12,0 - 0,0
15.08.2017 07:00:00 12,2 11,4 - 0,0
15.08.2017 06:00:00 12,1 11,2 - 0,0
15.08.2017 05:00:00 12,6 11,8 - 0,0
15.08.2017 04:00:00 12,8 11,7 - 0,0
15.08.2017 03:00:00 13,3 12,0 - 1,6
15.08.2017 02:00:00 13,7 13,0 - 3,8
15.08.2017 01:00:00 13,4 12,7 - 3,0
15.08.2017 00:00:00 13,2 12,5 - 5,0
14.08.2017 23:00:00 14,2 13,5 - 1,6
14.08.2017 22:00:00 14,3 13,6 10 3,2
14.08.2017 21:00:00 14,3 13,5 - 1,6
14.08.2017 20:00:00 14,4 13,4 - 1,6
14.08.2017 19:00:00 14,8 13,6 - 0,0
14.08.2017 18:00:00 15,0 13,7 - 0,0
14.08.2017 17:00:00 14,4 13,4 - 0,0
14.08.2017 16:00:00 14,2 13,4 - 0,4
14.08.2017 15:00:00 14,1 13,3 - 0,4
14.08.2017 14:00:00 13,7 13,0 - 0,0
14.08.2017 13:00:00 13,6 12,2 - 0,0
14.08.2017 12:00:00 13,2 11,4 - 0,0
14.08.2017 11:00:00 12,9 11,3 - 0,0
14.08.2017 10:00:00 12,0 10,8 27 0,0
14.08.2017 09:00:00 12,0 10,7 - 0,4
14.08.2017 08:00:00 12,0 10,7 - 0,8
14.08.2017 07:00:00 11,6 10,6 - 0,6
14.08.2017 06:00:00 11,6 9,8 - -
14.08.2017 05:00:00 12,3 9,0 - 0,0
14.08.2017 04:00:00 12,6 8,3 - 0,0
14.08.2017 03:00:00 13,0 7,5 - 0,0
14.08.2017 02:00:00 13,4 7,5 - 0,0
14.08.2017 01:00:00 12,3 7,1 - 0,0
14.08.2017 00:00:00 12,9 6,6 - 0,0
13.08.2017 23:00:00 12,6 6,8 - 0,0
13.08.2017 22:00:00 12,2 6,7 - 0,0
13.08.2017 21:00:00 13,1 6,1 - 0,0
13.08.2017 20:00:00 14,0 7,7 - 0,0
13.08.2017 19:00:00 14,9 6,9 - 0,0
13.08.2017 18:00:00 16,6 6,0 - 0,0
13.08.2017 17:00:00 16,2 6,8 - 0,0
13.08.2017 16:00:00 16,5 7,5 - 0,0
13.08.2017 15:00:00 15,7 7,1 - 0,0
13.08.2017 14:00:00 14,5 8,0 - 0,0
13.08.2017 13:00:00 15,7 8,6 - 0,0
13.08.2017 12:00:00 14,3 6,8 - 0,0
13.08.2017 11:00:00 14,4 8,8 - 0,0
13.08.2017 10:00:00 12,7 7,8 - 0,0
13.08.2017 09:00:00 11,3 7,9 - 0,0
13.08.2017 08:00:00 10,2 7,3 - 0,0
13.08.2017 07:00:00 7,8 6,3 - 0,0
13.08.2017 06:00:00 7,4 6,2 - 0,0
13.08.2017 05:00:00 7,5 5,6 - 0,0
13.08.2017 04:00:00 8,3 6,6 - 0,0
13.08.2017 03:00:00 8,6 6,7 - 0,0
13.08.2017 02:00:00 8,8 7,0 - 0,0
13.08.2017 01:00:00 9,2 7,0 - 0,0
13.08.2017 00:00:00 9,8 7,3 - 0,0
12.08.2017 23:00:00 11,3 7,4 - 0,0
12.08.2017 22:00:00 12,4 7,1 - 0,0
12.08.2017 21:00:00 13,0 7,3 - 0,0
12.08.2017 20:00:00 13,5 8,3 - 0,0
12.08.2017 19:00:00 14,6 9,0 - 0,0
12.08.2017 18:00:00 14,7 8,6 - 0,0
12.08.2017 17:00:00 14,7 8,3 - 0,0
12.08.2017 16:00:00 16,0 9,2 - 0,0
12.08.2017 15:00:00 16,7 10,9 - 0,0
12.08.2017 14:00:00 15,8 11,2 - 0,0
12.08.2017 13:00:00 15,3 13,8 - 0,0
12.08.2017 12:00:00 13,9 12,8 - 1,0
12.08.2017 11:00:00 13,2 12,9 - 1,2
12.08.2017 10:00:00 12,4 12,2 0,9 3,0
12.08.2017 09:00:00 12,2 11,9 - 1,4
12.08.2017 08:00:00 11,9 11,5 - 4,4
12.08.2017 07:00:00 11,8 11,0 - 0,8
12.08.2017 06:00:00 12,1 10,7 - 0,0
12.08.2017 05:00:00 12,3 10,8 - 0,0
12.08.2017 04:00:00 12,4 10,6 - 0,0
12.08.2017 03:00:00 12,8 10,9 - 0,0
12.08.2017 02:00:00 12,9 10,5 - 0,0
12.08.2017 01:00:00 13,6 11,9 - 0,0
12.08.2017 00:00:00 14,2 12,1 - 0,0

tt = temperature
td = dewpoint
vv = visibility
rr = precipitation

Next stations